createdAt,value
2017-09-06T00:01:03.151Z,5.90
2017-09-06T00:03:29.838Z,5.18
2017-09-06T00:05:56.453Z,6.03
2017-09-06T00:08:23.110Z,5.95
2017-09-06T00:10:49.718Z,5.72
2017-09-06T00:13:16.337Z,6.45
2017-09-06T00:15:43.031Z,6.60
2017-09-06T00:18:09.624Z,6.30
2017-09-06T00:20:36.250Z,7.03
2017-09-06T00:23:02.854Z,7.05
2017-09-06T00:25:29.450Z,7.50
2017-09-06T00:27:56.122Z,8.07
2017-09-06T00:30:22.762Z,8.00
2017-09-06T00:32:49.362Z,8.07
2017-09-06T00:35:15.985Z,8.60
2017-09-06T00:37:42.591Z,8.55
2017-09-06T00:40:09.218Z,7.45
2017-09-06T00:42:35.838Z,7.40
2017-09-06T00:45:02.494Z,7.87
2017-09-06T00:47:29.099Z,7.93
2017-09-06T00:49:55.717Z,8.05
2017-09-06T00:52:22.318Z,7.45
2017-09-06T00:54:48.918Z,8.20
2017-09-06T00:57:15.562Z,8.38
2017-09-06T00:59:42.226Z,9.48
2017-09-06T01:02:08.866Z,8.60
2017-09-06T01:04:35.485Z,8.80
2017-09-06T01:07:02.083Z,8.70
2017-09-06T01:09:28.682Z,7.60
2017-09-06T01:11:55.301Z,7.43
2017-09-06T01:14:21.901Z,8.05
2017-09-06T01:16:48.509Z,8.23
2017-09-06T01:19:15.130Z,8.95
2017-09-06T01:21:41.769Z,8.73
2017-09-06T01:24:08.369Z,9.10
2017-09-06T01:26:34.994Z,7.20
2017-09-06T01:29:01.602Z,6.70
2017-09-06T01:31:28.236Z,7.72
2017-09-06T01:33:54.961Z,7.57
2017-09-06T01:36:21.610Z,6.68
2017-09-06T01:38:48.247Z,8.20
2017-09-06T01:41:14.869Z,9.50
2017-09-06T01:43:41.527Z,8.75
2017-09-06T01:46:08.121Z,8.25
2017-09-06T01:48:34.743Z,7.30
2017-09-06T01:51:01.439Z,7.43
2017-09-06T01:53:28.043Z,6.85
2017-09-06T01:55:54.666Z,7.28
2017-09-06T01:58:21.262Z,6.93
2017-09-06T02:00:47.895Z,6.25
2017-09-06T02:03:14.522Z,6.50
2017-09-06T02:05:41.175Z,7.05
2017-09-06T02:08:07.772Z,6.85
2017-09-06T02:10:34.391Z,7.12
2017-09-06T02:13:01.090Z,7.60
2017-09-06T02:15:27.691Z,7.25
2017-09-06T02:17:54.370Z,7.95
2017-09-06T02:20:21.006Z,7.47
2017-09-06T02:22:47.652Z,7.47
2017-09-06T02:25:14.842Z,7.40
2017-09-06T02:27:42.303Z,7.50
2017-09-06T02:30:09.523Z,7.57
2017-09-06T02:32:36.178Z,7.35
2017-09-06T02:35:02.783Z,7.62
2017-09-06T02:37:29.430Z,6.97
2017-09-06T02:39:56.055Z,6.53
2017-09-06T02:42:22.650Z,6.95
2017-09-06T02:44:49.337Z,6.75
2017-09-06T02:47:15.966Z,5.40
2017-09-06T02:49:42.618Z,6.95
2017-09-06T02:52:09.227Z,7.40
2017-09-06T02:54:35.903Z,6.62
2017-09-06T02:57:02.501Z,6.87
2017-09-06T02:59:29.101Z,7.00
2017-09-06T03:01:56.069Z,6.60
2017-09-06T03:04:22.665Z,7.00
2017-09-06T03:06:49.298Z,6.72
2017-09-06T03:09:15.917Z,6.10
2017-09-06T03:11:42.573Z,5.90
2017-09-06T03:14:09.173Z,5.10
2017-09-06T03:16:35.854Z,5.22
2017-09-06T03:19:02.449Z,5.57
2017-09-06T03:21:29.050Z,8.50
2017-09-06T03:23:55.775Z,5.85
2017-09-06T03:26:22.376Z,5.20
2017-09-06T03:28:49.049Z,5.78
2017-09-06T03:31:15.686Z,5.12
2017-09-06T03:33:42.325Z,6.50
2017-09-06T03:36:08.929Z,5.57
2017-09-06T03:38:35.607Z,5.60
2017-09-06T03:41:02.205Z,6.30
2017-09-06T03:43:28.806Z,6.20
2017-09-06T03:45:55.434Z,6.22
2017-09-06T03:48:22.060Z,5.60
2017-09-06T03:50:48.662Z,6.35
2017-09-06T03:53:15.333Z,7.22
2017-09-06T03:55:41.978Z,5.50
2017-09-06T03:58:08.577Z,5.40
2017-09-06T04:00:35.254Z,6.22
2017-09-06T04:03:01.893Z,7.10
2017-09-06T04:05:28.536Z,5.90
2017-09-06T04:07:55.169Z,8.35
2017-09-06T04:10:21.813Z,6.32
2017-09-06T04:12:48.450Z,5.95
2017-09-06T04:15:15.074Z,6.80
2017-09-06T04:17:41.679Z,6.35
2017-09-06T04:20:08.366Z,5.78
2017-09-06T04:22:34.992Z,8.27
2017-09-06T04:25:01.691Z,10.90
2017-09-06T04:27:28.297Z,14.55
2017-09-06T04:29:54.922Z,17.73
2017-09-06T04:32:21.534Z,14.05
2017-09-06T04:34:48.198Z,14.18
2017-09-06T04:37:14.946Z,15.18
2017-09-06T04:39:41.550Z,12.00
2017-09-06T04:42:08.163Z,14.50
2017-09-06T04:44:34.798Z,13.32
2017-09-06T04:47:01.506Z,13.15
2017-09-06T04:49:28.143Z,12.45
2017-09-06T04:51:54.766Z,12.68
2017-09-06T04:54:21.379Z,14.05
2017-09-06T04:56:48.054Z,15.48
2017-09-06T04:59:14.685Z,14.70
2017-09-06T05:01:41.286Z,7.00
2017-09-06T05:04:07.887Z,7.50
2017-09-06T05:06:34.505Z,6.00
2017-09-06T05:09:01.105Z,8.20
2017-09-06T05:11:27.706Z,5.70
2017-09-06T05:13:54.426Z,5.68
2017-09-06T05:16:21.061Z,5.50
2017-09-06T05:18:47.665Z,6.75
2017-09-06T05:21:14.285Z,7.55
2017-09-06T05:23:41.029Z,9.10
2017-09-06T05:26:07.727Z,8.77
2017-09-06T05:28:34.364Z,8.32
2017-09-06T05:31:01.002Z,8.50
2017-09-06T05:33:27.604Z,6.93
2017-09-06T05:35:54.278Z,5.93
2017-09-06T05:38:20.917Z,6.00
2017-09-06T05:40:47.566Z,6.78
2017-09-06T05:43:14.297Z,6.90
2017-09-06T05:45:40.933Z,6.87
2017-09-06T05:48:07.578Z,8.73
2017-09-06T05:50:34.209Z,10.10
2017-09-06T05:53:00.854Z,8.15
2017-09-06T05:55:27.456Z,8.90
2017-09-06T05:57:54.141Z,7.60
2017-09-06T06:00:20.755Z,7.65
2017-09-06T06:02:47.410Z,7.40
2017-09-06T06:05:14.030Z,5.55
2017-09-06T06:07:40.625Z,5.20
2017-09-06T06:10:07.329Z,4.80
2017-09-06T06:12:34.069Z,4.78
2017-09-06T06:15:00.675Z,4.90
2017-09-06T06:17:27.354Z,3.80
2017-09-06T06:19:53.974Z,4.07
2017-09-06T06:22:20.617Z,3.70
2017-09-06T06:24:47.226Z,3.62
2017-09-06T06:27:13.906Z,4.32
2017-09-06T06:29:40.511Z,4.30
2017-09-06T06:32:07.110Z,4.37
2017-09-06T06:34:33.820Z,4.12
2017-09-06T06:37:00.421Z,3.80
2017-09-06T06:39:27.018Z,3.40
2017-09-06T06:41:53.738Z,3.70
2017-09-06T06:44:20.343Z,3.03
2017-09-06T06:46:46.946Z,3.50
2017-09-06T06:49:13.562Z,3.70
2017-09-06T06:51:40.193Z,2.87
2017-09-06T06:54:06.830Z,3.55
2017-09-06T06:56:33.474Z,3.70
2017-09-06T06:59:00.074Z,3.20
2017-09-06T07:01:26.677Z,3.37
2017-09-06T07:03:53.300Z,3.50
2017-09-06T07:06:19.899Z,3.10
2017-09-06T07:08:46.503Z,2.90
2017-09-06T07:11:13.202Z,2.95
2017-09-06T07:13:39.806Z,3.05
2017-09-06T07:16:06.410Z,3.25
2017-09-06T07:18:33.034Z,2.87
2017-09-06T07:20:59.659Z,2.70
2017-09-06T07:23:26.258Z,2.22
2017-09-06T07:25:52.882Z,2.75
2017-09-06T07:28:19.482Z,2.55
2017-09-06T07:30:46.086Z,2.60
2017-09-06T07:33:12.702Z,2.00
2017-09-06T07:35:39.389Z,2.25
2017-09-06T07:38:06.047Z,2.28
2017-09-06T07:40:32.669Z,2.03
2017-09-06T07:42:59.274Z,2.33
2017-09-06T07:45:25.870Z,2.20
2017-09-06T07:47:52.493Z,2.80
2017-09-06T07:50:19.097Z,2.03
2017-09-06T07:52:45.697Z,1.90
2017-09-06T07:55:12.400Z,2.30
2017-09-06T07:57:38.997Z,1.90
2017-09-06T08:00:05.678Z,2.20
2017-09-06T08:02:32.346Z,1.65
2017-09-06T08:04:59.000Z,1.90
2017-09-06T08:07:25.621Z,1.52
2017-09-06T08:09:52.335Z,2.00
2017-09-06T08:12:18.975Z,2.17
2017-09-06T08:14:45.576Z,1.95
2017-09-06T08:17:12.196Z,1.45
2017-09-06T08:19:38.793Z,1.40
2017-09-06T08:22:05.430Z,2.35
2017-09-06T08:24:32.070Z,2.10
2017-09-06T08:26:58.706Z,2.20
2017-09-06T08:29:25.308Z,2.10
2017-09-06T08:31:51.986Z,2.45
2017-09-06T08:34:18.586Z,1.52
2017-09-06T08:36:45.262Z,2.22
2017-09-06T08:39:11.890Z,1.83
2017-09-06T08:41:38.542Z,1.87
2017-09-06T08:44:05.182Z,2.03
2017-09-06T08:46:31.821Z,2.12
2017-09-06T08:48:58.421Z,2.40
2017-09-06T08:51:25.106Z,2.10
2017-09-06T08:53:51.729Z,2.90
2017-09-06T08:56:18.329Z,2.95
2017-09-06T08:58:44.929Z,2.67
2017-09-06T09:01:11.554Z,2.92
2017-09-06T09:03:38.150Z,2.97
2017-09-06T09:06:04.754Z,2.30
2017-09-06T09:08:31.470Z,3.30
2017-09-06T09:10:58.073Z,2.60
2017-09-06T09:13:24.746Z,2.70
2017-09-06T09:15:51.369Z,2.37
2017-09-06T09:18:18.071Z,3.00
2017-09-06T09:20:44.769Z,2.72
2017-09-06T09:23:11.395Z,2.35
2017-09-06T09:25:37.999Z,2.65
2017-09-06T09:28:04.606Z,2.67
2017-09-06T09:30:31.232Z,2.65
2017-09-06T09:32:57.861Z,2.72
2017-09-06T09:35:24.506Z,2.35
2017-09-06T09:37:51.143Z,2.05
2017-09-06T09:40:17.758Z,2.30
2017-09-06T09:42:44.363Z,2.37
2017-09-06T09:45:10.990Z,2.45
2017-09-06T09:47:37.590Z,2.28
2017-09-06T09:50:04.277Z,2.90
2017-09-06T09:52:30.970Z,2.70
2017-09-06T09:54:57.609Z,2.92
2017-09-06T09:57:24.249Z,2.37
2017-09-06T09:59:50.889Z,2.47
2017-09-06T10:02:17.495Z,2.53
2017-09-06T10:04:44.099Z,2.10
2017-09-06T10:07:10.801Z,2.00
2017-09-06T10:09:37.467Z,2.37
2017-09-06T10:12:04.065Z,1.85
2017-09-06T10:14:30.722Z,1.67
2017-09-06T10:16:57.469Z,2.20
2017-09-06T10:19:24.103Z,1.70
2017-09-06T10:21:50.737Z,2.65
2017-09-06T10:24:17.382Z,1.55
2017-09-06T10:26:43.977Z,1.65
2017-09-06T10:29:10.691Z,1.65
2017-09-06T10:31:37.355Z,2.37
2017-09-06T10:34:04.031Z,3.00
2017-09-06T10:36:30.654Z,4.45
2017-09-06T10:38:57.264Z,12.27
2017-09-06T10:41:24.070Z,4.53
2017-09-06T10:43:50.873Z,12.68
2017-09-06T10:46:17.794Z,3.80
2017-09-06T10:48:44.742Z,3.28
2017-09-06T10:51:11.735Z,3.08
2017-09-06T10:53:38.735Z,4.05
2017-09-06T10:56:05.429Z,2.22
2017-09-06T10:58:32.423Z,2.65
2017-09-06T11:00:59.050Z,2.80
2017-09-06T11:03:25.671Z,2.05
2017-09-06T11:05:52.299Z,3.90
2017-09-06T11:08:18.902Z,4.30
2017-09-06T11:10:45.570Z,9.73
2017-09-06T11:13:14.136Z,7.07
2017-09-06T11:15:41.205Z,1.40
2017-09-06T11:18:07.810Z,2.25
2017-09-06T11:20:34.486Z,3.17
2017-09-06T11:23:01.091Z,1.42
2017-09-06T11:25:27.762Z,1.35
2017-09-06T11:27:54.402Z,1.87
2017-09-06T11:30:20.998Z,1.25
2017-09-06T11:32:47.680Z,1.90
2017-09-06T11:35:14.302Z,2.12
2017-09-06T11:37:40.958Z,1.30
2017-09-06T11:40:07.600Z,1.40
2017-09-06T11:42:34.214Z,1.95
2017-09-06T11:45:00.873Z,1.23
2017-09-06T11:47:27.477Z,1.10
2017-09-06T11:49:54.105Z,1.95
2017-09-06T11:52:20.705Z,1.33
2017-09-06T11:54:47.665Z,1.05
2017-09-06T11:57:14.377Z,1.23
2017-09-06T11:59:40.978Z,0.88
2017-09-06T12:02:07.578Z,1.80
2017-09-06T12:04:34.196Z,1.17
2017-09-06T12:07:00.797Z,1.65
2017-09-06T12:09:27.398Z,1.42
2017-09-06T12:11:54.019Z,1.20
2017-09-06T12:14:20.629Z,1.17
2017-09-06T12:16:47.283Z,1.20
2017-09-06T12:19:13.906Z,1.25
2017-09-06T12:21:40.506Z,1.40
2017-09-06T12:24:07.106Z,0.90
2017-09-06T12:26:33.843Z,1.37
2017-09-06T12:29:00.442Z,0.88
2017-09-06T12:31:27.055Z,0.50
2017-09-06T12:33:53.678Z,0.88
2017-09-06T12:36:20.340Z,0.95
2017-09-06T12:38:47.033Z,1.55
2017-09-06T12:41:13.677Z,2.78
2017-09-06T12:43:40.313Z,1.00
2017-09-06T12:46:06.909Z,1.50
2017-09-06T12:48:33.589Z,1.10
2017-09-06T12:51:00.190Z,1.02
2017-09-06T12:53:26.789Z,1.70
2017-09-06T12:55:53.415Z,1.33
2017-09-06T12:58:20.017Z,1.50
2017-09-06T13:00:46.705Z,2.70
2017-09-06T13:03:13.431Z,2.80
2017-09-06T13:05:40.030Z,0.60
2017-09-06T13:08:06.630Z,2.00
2017-09-06T13:10:33.341Z,1.00
2017-09-06T13:12:59.947Z,0.90
2017-09-06T13:15:26.617Z,0.62
2017-09-06T13:17:53.377Z,1.00
2017-09-06T13:20:20.048Z,0.68
2017-09-06T13:22:46.656Z,0.50
2017-09-06T13:25:13.279Z,2.85
2017-09-06T13:27:39.918Z,0.45
2017-09-06T13:30:06.516Z,2.15
2017-09-06T13:32:33.141Z,1.12
2017-09-06T13:34:59.746Z,0.68
2017-09-06T13:37:27.411Z,0.55
2017-09-06T13:39:54.033Z,1.12
2017-09-06T13:42:20.674Z,1.55
2017-09-06T13:44:47.278Z,2.20
2017-09-06T13:47:13.905Z,0.85
2017-09-06T13:49:40.590Z,7.62
2017-09-06T13:52:07.226Z,0.70
2017-09-06T13:54:33.872Z,1.77
2017-09-06T13:57:00.471Z,1.30
2017-09-06T13:59:27.151Z,32.60
2017-09-06T14:01:53.786Z,8.63
2017-09-06T14:04:20.386Z,8.07
2017-09-06T14:06:47.062Z,8.17
2017-09-06T14:09:13.807Z,3.97
2017-09-06T14:11:40.446Z,2.37
2017-09-06T14:14:07.045Z,1.07
2017-09-06T14:16:33.723Z,10.13
2017-09-06T14:19:00.323Z,0.97
2017-09-06T14:21:27.003Z,12.73
2017-09-06T14:23:53.743Z,7.00
2017-09-06T14:26:20.346Z,2.13
2017-09-06T14:28:46.945Z,3.73
2017-09-06T14:31:13.561Z,2.17
2017-09-06T14:33:40.162Z,3.10
2017-09-06T14:36:06.834Z,4.70
2017-09-06T14:38:33.467Z,13.17
2017-09-06T14:41:00.114Z,1.77
2017-09-06T14:43:26.723Z,5.93
2017-09-06T14:45:53.395Z,2.80
2017-09-06T14:48:20.034Z,1.50
2017-09-06T14:50:46.630Z,1.40
2017-09-06T14:53:13.310Z,2.37
2017-09-06T14:55:39.909Z,2.73
2017-09-06T14:58:06.518Z,4.33
2017-09-06T15:00:33.136Z,2.37
2017-09-06T15:02:59.762Z,1.43
2017-09-06T15:05:26.362Z,3.67
2017-09-06T15:07:52.994Z,1.75
2017-09-06T15:10:19.681Z,1.50
2017-09-06T15:12:46.317Z,1.58
2017-09-06T15:15:12.940Z,2.58
2017-09-06T15:17:39.542Z,2.03
2017-09-06T15:20:06.238Z,1.60
2017-09-06T15:22:32.863Z,2.10
2017-09-06T15:24:59.456Z,2.00
2017-09-06T15:27:26.057Z,2.17
2017-09-06T15:29:52.690Z,1.70
2017-09-06T15:32:19.290Z,1.93
2017-09-06T15:34:45.891Z,1.40
2017-09-06T15:37:12.510Z,1.80
2017-09-06T15:39:40.120Z,1.87
2017-09-06T15:42:06.755Z,2.00
2017-09-06T15:44:33.491Z,1.80
2017-09-06T15:47:00.195Z,1.50
2017-09-06T15:49:26.838Z,1.53
2017-09-06T15:51:53.570Z,1.60
2017-09-06T15:54:20.170Z,1.27
2017-09-06T15:56:46.787Z,1.37
2017-09-06T15:59:13.402Z,1.77
2017-09-06T16:01:40.023Z,2.00
2017-09-06T16:04:06.662Z,1.90
2017-09-06T16:06:33.413Z,2.08
2017-09-06T16:09:00.058Z,1.75
2017-09-06T16:11:26.666Z,2.40
2017-09-06T16:13:53.289Z,1.75
2017-09-06T16:16:19.893Z,2.05
2017-09-06T16:18:46.498Z,2.15
2017-09-06T16:21:13.129Z,2.40
2017-09-06T16:23:39.769Z,1.55
2017-09-06T16:26:06.379Z,2.75
2017-09-06T16:28:33.008Z,2.22
2017-09-06T16:30:59.606Z,2.25
2017-09-06T16:33:26.214Z,2.40
2017-09-06T16:35:52.839Z,2.35
2017-09-06T16:38:19.505Z,1.95
2017-09-06T16:40:46.110Z,2.92
2017-09-06T16:43:12.729Z,2.50
2017-09-06T16:45:39.429Z,2.05
2017-09-06T16:48:06.022Z,2.70
2017-09-06T16:50:32.698Z,2.35
2017-09-06T16:52:59.342Z,2.62
2017-09-06T16:55:25.943Z,2.87
2017-09-06T16:57:52.569Z,3.03
2017-09-06T17:00:19.178Z,2.55
2017-09-06T17:02:45.783Z,3.15
2017-09-06T17:05:12.450Z,3.25
2017-09-06T17:07:39.069Z,2.40
2017-09-06T17:10:05.714Z,3.55
2017-09-06T17:12:32.331Z,2.10
2017-09-06T17:14:58.990Z,3.03
2017-09-06T17:17:25.626Z,2.55
2017-09-06T17:19:52.250Z,2.50
2017-09-06T17:22:18.847Z,3.12
2017-09-06T17:24:45.445Z,2.60
2017-09-06T17:27:12.182Z,2.70
2017-09-06T17:29:38.822Z,2.45
2017-09-06T17:32:05.458Z,3.10
2017-09-06T17:34:32.088Z,3.05
2017-09-06T17:36:58.689Z,2.80
2017-09-06T17:39:25.312Z,3.55
2017-09-06T17:41:51.918Z,2.85
2017-09-06T17:44:18.521Z,3.28
2017-09-06T17:46:45.123Z,3.20
2017-09-06T17:49:11.742Z,2.78
2017-09-06T17:51:38.366Z,2.70
2017-09-06T17:54:05.006Z,1.98
2017-09-06T17:56:31.645Z,3.00
2017-09-06T17:58:58.286Z,2.67
2017-09-06T18:01:24.922Z,3.62
2017-09-06T18:03:51.562Z,2.90
2017-09-06T18:06:18.166Z,2.87
2017-09-06T18:08:44.842Z,3.47
2017-09-06T18:11:11.587Z,2.45
2017-09-06T18:13:38.222Z,2.78
2017-09-06T18:16:04.866Z,3.10
2017-09-06T18:18:31.499Z,2.62
2017-09-06T18:20:58.097Z,2.95
2017-09-06T18:23:24.776Z,3.30
2017-09-06T18:25:51.410Z,2.97
2017-09-06T18:28:18.012Z,2.78
2017-09-06T18:30:44.610Z,2.40
2017-09-06T18:33:11.233Z,2.55
2017-09-06T18:35:37.875Z,3.22
2017-09-06T18:38:04.474Z,2.97
2017-09-06T18:40:31.097Z,2.92
2017-09-06T18:42:57.701Z,3.03
2017-09-06T18:45:24.310Z,3.15
2017-09-06T18:47:50.938Z,2.72
2017-09-06T18:50:17.601Z,3.70
2017-09-06T18:52:44.247Z,3.00
2017-09-06T18:55:10.866Z,3.30
2017-09-06T18:57:37.526Z,3.30
2017-09-06T19:00:04.126Z,3.30
2017-09-06T19:02:30.936Z,2.45
2017-09-06T19:04:57.642Z,2.80
2017-09-06T19:07:24.286Z,2.92
2017-09-06T19:09:51.024Z,2.85
2017-09-06T19:12:17.621Z,3.28
2017-09-06T19:14:44.227Z,2.97
2017-09-06T19:17:10.938Z,2.60
2017-09-06T19:19:37.542Z,2.80
2017-09-06T19:22:04.150Z,3.92
2017-09-06T19:24:30.778Z,3.62
2017-09-06T19:26:57.395Z,3.40
2017-09-06T19:29:24.001Z,3.25
2017-09-06T19:31:50.622Z,3.25
2017-09-06T19:34:17.309Z,3.08
2017-09-06T19:36:43.955Z,2.83
2017-09-06T19:39:10.693Z,3.75
2017-09-06T19:41:37.334Z,3.22
2017-09-06T19:44:03.938Z,3.90
2017-09-06T19:46:30.559Z,3.50
2017-09-06T19:48:57.165Z,4.28
2017-09-06T19:51:23.772Z,3.40
2017-09-06T19:53:50.389Z,3.08
2017-09-06T19:56:17.010Z,3.60
2017-09-06T19:58:43.701Z,3.58
2017-09-06T20:01:10.441Z,3.85
2017-09-06T20:03:37.054Z,3.53
2017-09-06T20:06:04.647Z,3.25
2017-09-06T20:08:31.381Z,3.30
2017-09-06T20:10:58.042Z,3.67
2017-09-06T20:13:24.659Z,3.30
2017-09-06T20:15:51.281Z,2.97
2017-09-06T20:18:17.939Z,3.10
2017-09-06T20:20:44.577Z,2.85
2017-09-06T20:23:11.202Z,2.90
2017-09-06T20:25:37.807Z,3.50
2017-09-06T20:28:04.506Z,3.15
2017-09-06T20:30:31.135Z,3.17
2017-09-06T20:32:57.780Z,3.72
2017-09-06T20:35:24.414Z,3.20
2017-09-06T20:37:51.031Z,3.78
2017-09-06T20:40:17.631Z,3.60
2017-09-06T20:42:44.230Z,2.97
2017-09-06T20:45:10.854Z,3.80
2017-09-06T20:47:37.452Z,2.75
2017-09-06T20:50:04.142Z,2.97
2017-09-06T20:52:30.780Z,3.10
2017-09-06T20:54:57.422Z,2.80
2017-09-06T20:57:24.058Z,4.30
2017-09-06T20:59:50.686Z,3.22
2017-09-06T21:02:17.286Z,3.37
2017-09-06T21:04:44.065Z,4.05
2017-09-06T21:07:10.685Z,2.35
2017-09-06T21:09:37.358Z,2.80
2017-09-06T21:12:04.006Z,3.12
2017-09-06T21:14:30.635Z,3.65
2017-09-06T21:16:57.234Z,2.90
2017-09-06T21:19:24.045Z,2.58
2017-09-06T21:21:50.703Z,3.90
2017-09-06T21:24:17.402Z,3.35
2017-09-06T21:26:44.037Z,2.72
2017-09-06T21:29:10.658Z,3.08
2017-09-06T21:31:37.259Z,3.35
2017-09-06T21:34:03.853Z,2.70
2017-09-06T21:36:30.490Z,4.05
2017-09-06T21:38:57.093Z,3.37
2017-09-06T21:41:23.770Z,3.90
2017-09-06T21:43:50.402Z,3.40
2017-09-06T21:46:17.045Z,2.65
2017-09-06T21:48:43.684Z,2.30
2017-09-06T21:51:10.308Z,2.70
2017-09-06T21:53:36.971Z,3.30
2017-09-06T21:56:03.570Z,2.80
2017-09-06T21:58:30.242Z,3.22
2017-09-06T22:00:56.843Z,3.80
2017-09-06T22:03:23.444Z,3.53
2017-09-06T22:05:50.062Z,3.53
2017-09-06T22:08:16.702Z,3.65
2017-09-06T22:10:43.337Z,2.90
2017-09-06T22:13:09.967Z,3.83
2017-09-06T22:15:36.565Z,3.53
2017-09-06T22:18:03.249Z,3.50
2017-09-06T22:20:29.878Z,3.40
2017-09-06T22:22:56.478Z,3.65
2017-09-06T22:25:23.073Z,3.03
2017-09-06T22:27:49.699Z,3.60
2017-09-06T22:30:16.297Z,3.05
2017-09-06T22:32:42.906Z,2.67
2017-09-06T22:35:09.517Z,3.87
2017-09-06T22:37:36.120Z,3.12
2017-09-06T22:40:02.718Z,3.33
2017-09-06T22:42:29.385Z,2.95
2017-09-06T22:44:55.987Z,3.20
2017-09-06T22:47:22.592Z,3.45
2017-09-06T22:49:49.257Z,3.12
2017-09-06T22:52:15.903Z,3.50
2017-09-06T22:54:42.501Z,3.60
2017-09-06T22:57:09.171Z,3.60
2017-09-06T22:59:35.770Z,3.85
2017-09-06T23:02:02.374Z,3.40
2017-09-06T23:04:28.999Z,3.12
2017-09-06T23:06:55.621Z,3.40
2017-09-06T23:09:23.190Z,3.47
2017-09-06T23:11:49.805Z,4.03
2017-09-06T23:14:16.413Z,3.67
2017-09-06T23:16:43.098Z,3.67
2017-09-06T23:19:09.738Z,3.28
2017-09-06T23:21:36.337Z,3.50
2017-09-06T23:24:02.943Z,3.17
2017-09-06T23:26:29.563Z,3.30
2017-09-06T23:28:56.162Z,3.35
2017-09-06T23:31:22.771Z,3.17
2017-09-06T23:33:49.393Z,3.10
2017-09-06T23:36:16.010Z,4.22
2017-09-06T23:38:42.610Z,3.12
2017-09-06T23:41:09.239Z,3.28
2017-09-06T23:43:35.839Z,3.08
2017-09-06T23:46:02.430Z,3.10
2017-09-06T23:48:29.102Z,3.22
2017-09-06T23:50:55.700Z,2.62
2017-09-06T23:53:22.309Z,3.80
2017-09-06T23:55:49.029Z,3.62
2017-09-06T23:58:15.629Z,3.50
